Time;durP1;ratioP1;P1;durP2;ratioP2;P2;SDS_P1;SDS_P2;PMS_P1;PMS_P2;Temp;Humidity;BMP_temperature;BMP_pressure;BME280_temperature;BME280_humidity;BME280_pressure;Samples;Min_cycle;Max_cycle;Signal;HPM_P1;HPM_P2
2022/01/17 00:02:09;;;;;;;18.15;3.03;;;21.40;43.10;;;;;;5064700;28;20060;-59
2022/01/17 00:04:35;;;;;;;24.02;3.35;;;21.40;43.20;;;;;;5066527;28;40425;-60
2022/01/17 00:07:00;;;;;;;20.02;3.05;;;21.40;43.20;;;;;;5064903;28;20056;-59
2022/01/17 00:09:27;;;;;;;19.58;2.97;;;21.30;43.10;;;;;;5066325;28;20093;-59
2022/01/17 00:11:53;;;;;;;22.73;2.78;;;21.30;43.10;;;;;;5066490;28;20842;-59
2022/01/17 00:14:22;;;;;;;17.75;2.40;;;21.30;43.10;;;;;;5067781;28;20041;-59
2022/01/17 00:17:03;;;;;;;12.02;2.00;;;21.30;43.10;;;;;;5067182;28;20440;-58
2022/01/17 00:19:37;;;;;;;6.40;1.70;;;21.30;43.00;;;;;;5059242;28;42835;-58
2022/01/17 00:22:02;;;;;;;12.48;2.80;;;21.20;42.90;;;;;;5065057;28;20056;-60
2022/01/17 00:24:28;;;;;;;7.55;2.15;;;21.20;43.00;;;;;;5068635;28;20527;-59
2022/01/17 00:26:54;;;;;;;7.15;2.40;;;21.20;42.90;;;;;;5066515;28;20036;-59
2022/01/17 00:29:19;;;;;;;15.23;2.33;;;21.20;42.80;;;;;;5065448;28;20050;-58
2022/01/17 00:31:45;;;;;;;9.57;1.38;;;21.20;42.80;;;;;;5069608;28;38675;-59
2022/01/17 00:34:10;;;;;;;8.93;1.85;;;21.20;42.80;;;;;;5070209;28;20089;-58
2022/01/17 00:36:36;;;;;;;9.55;1.80;;;21.20;42.80;;;;;;5073521;28;20044;-60
2022/01/17 00:39:02;;;;;;;13.98;2.55;;;21.20;42.70;;;;;;5066624;28;20089;-59
2022/01/17 00:41:27;;;;;;;7.47;2.30;;;21.20;42.70;;;;;;5071304;28;20040;-59
2022/01/17 00:43:53;;;;;;;11.23;1.85;;;21.20;42.70;;;;;;5072375;28;20049;-58
2022/01/17 00:46:18;;;;;;;10.80;2.08;;;21.10;42.60;;;;;;5068135;28;36230;-59
2022/01/17 00:48:44;;;;;;;10.10;1.90;;;21.10;42.50;;;;;;5068341;28;20043;-59
2022/01/17 00:51:09;;;;;;;9.25;1.50;;;21.10;42.50;;;;;;5067827;28;20913;-59
2022/01/17 00:53:37;;;;;;;9.40;2.15;;;21.10;42.40;;;;;;5070075;28;20087;-59
2022/01/17 00:56:06;;;;;;;5.30;1.77;;;21.10;42.50;;;;;;5071206;28;20133;-59
2022/01/17 00:58:31;;;;;;;4.10;1.77;;;21.00;42.40;;;;;;5069664;28;20513;-59
2022/01/17 01:00:57;;;;;;;7.43;1.58;;;21.00;42.40;;;;;;5065508;28;41266;-58
2022/01/17 01:03:22;;;;;;;7.95;1.75;;;21.00;42.40;;;;;;5071990;28;20485;-58
2022/01/17 01:05:48;;;;;;;5.20;1.42;;;21.00;42.40;;;;;;5071713;28;20557;-59
2022/01/17 01:08:13;;;;;;;8.60;1.85;;;21.00;42.30;;;;;;5071465;28;20045;-59
2022/01/17 01:10:39;;;;;;;4.22;1.50;;;21.00;42.30;;;;;;5067987;28;20040;-59
2022/01/17 01:13:05;;;;;;;5.55;1.48;;;21.00;42.30;;;;;;5073372;28;20062;-59
2022/01/17 01:15:47;;;;;;;6.57;1.23;;;21.00;42.30;;;;;;5067632;28;39094;-59
2022/01/17 01:28:36;;;;;;;6.70;1.65;;;20.90;42.10;;;;;;5068509;28;31265;-59
2022/01/17 01:31:06;;;;;;;4.72;1.38;;;20.90;42.30;;;;;;5069686;28;20119;-60
2022/01/17 01:33:36;;;;;;;6.07;1.33;;;20.90;42.30;;;;;;5067898;28;20059;-59
2022/01/17 01:36:08;;;;;;;4.88;1.60;;;20.90;42.50;;;;;;5068515;28;20059;-58
2022/01/17 01:38:35;;;;;;;5.50;1.80;;;20.90;42.70;;;;;;5068591;28;20419;-59
2022/01/17 01:41:01;;;;;;;4.13;1.42;;;20.90;42.90;;;;;;5070495;28;20036;-58
2022/01/17 01:43:27;;;;;;;4.43;1.63;;;20.90;43.00;;;;;;5066011;28;36560;-59
2022/01/17 01:46:00;;;;;;;6.35;1.20;;;20.90;43.80;;;;;;5068248;28;20036;-59
2022/01/17 01:48:27;;;;;;;3.70;1.23;;;20.90;43.20;;;;;;5069111;28;20050;-59
2022/01/17 01:50:52;;;;;;;6.00;1.40;;;20.80;43.10;;;;;;5068657;28;20136;-59
2022/01/17 01:53:18;;;;;;;4.20;1.48;;;20.80;43.10;;;;;;5071215;28;20443;-58
2022/01/17 01:55:45;;;;;;;5.60;1.90;;;20.80;43.10;;;;;;5066584;28;33490;-58
2022/01/17 01:58:11;;;;;;;3.75;1.20;;;20.80;43.30;;;;;;5069939;28;20423;-59
2022/01/17 02:00:37;;;;;;;5.63;1.90;;;20.80;43.20;;;;;;5067941;28;20045;-59
2022/01/17 02:03:05;;;;;;;3.63;1.25;;;20.80;43.20;;;;;;5068558;28;20109;-58
2022/01/17 02:05:31;;;;;;;3.05;1.40;;;20.80;43.20;;;;;;5069577;28;20474;-58
2022/01/17 02:07:56;;;;;;;4.38;1.60;;;20.80;43.10;;;;;;5071225;28;20043;-58
2022/01/17 02:10:22;;;;;;;4.80;1.60;;;20.80;43.10;;;;;;5067592;28;36277;-58
2022/01/17 02:12:47;;;;;;;3.00;1.13;;;20.70;43.00;;;;;;5070878;28;20041;-60
2022/01/17 02:15:15;;;;;;;5.80;1.60;;;20.70;43.00;;;;;;5068465;28;20429;-59
2022/01/17 02:17:53;;;;;;;3.20;1.25;;;20.70;42.80;;;;;;5069934;28;20032;-61
2022/01/17 02:20:22;;;;;;;4.00;1.25;;;20.70;42.80;;;;;;5069016;28;20051;-59
2022/01/17 02:22:48;;;;;;;4.88;1.40;;;20.70;42.70;;;;;;5069254;28;20025;-59
2022/01/17 02:25:14;;;;;;;4.00;1.70;;;20.70;42.60;;;;;;5067457;28;38654;-59
2022/01/17 02:27:40;;;;;;;7.95;1.70;;;20.70;42.60;;;;;;5071567;28;20075;-59
2022/01/17 02:30:06;;;;;;;3.08;1.20;;;20.70;42.60;;;;;;5068457;28;20036;-59
2022/01/17 02:32:33;;;;;;;4.25;1.40;;;20.70;42.60;;;;;;5068882;28;20044;-59
2022/01/17 02:35:17;;;;;;;3.70;1.17;;;20.60;42.50;;;;;;5062604;28;20051;-59
2022/01/17 02:37:43;;;;;;;4.13;1.58;;;20.70;42.50;;;;;;5068221;28;20047;-59
2022/01/17 02:40:09;;;;;;;4.65;1.40;;;20.60;42.50;;;;;;5064880;28;26740;-58
2022/01/17 02:42:36;;;;;;;5.00;1.42;;;20.60;42.30;;;;;;5069173;28;20659;-59
2022/01/17 02:45:12;;;;;;;5.75;1.40;;;20.60;42.40;;;;;;5068876;28;20134;-60
2022/01/17 02:47:38;;;;;;;3.53;1.50;;;20.60;42.30;;;;;;5064700;28;20036;-59
2022/01/17 02:50:05;;;;;;;3.75;1.30;;;20.60;42.30;;;;;;5067352;28;20063;-59
2022/01/17 02:52:30;;;;;;;2.38;1.05;;;20.60;42.30;;;;;;5059355;28;45436;-59
2022/01/17 02:54:56;;;;;;;5.05;1.40;;;20.60;42.30;;;;;;5066376;28;20630;-59
2022/01/17 02:57:24;;;;;;;4.22;1.27;;;20.60;42.20;;;;;;5064845;28;20041;-59
2022/01/17 02:59:50;;;;;;;2.97;1.50;;;20.60;42.20;;;;;;5071916;28;20039;-59
2022/01/17 03:02:16;;;;;;;4.25;1.50;;;20.60;42.20;;;;;;5058596;28;20041;-59
2022/01/17 03:04:41;;;;;;;4.50;1.52;;;20.50;42.10;;;;;;5064379;28;20067;-59
2022/01/17 03:07:07;;;;;;;3.17;1.30;;;20.50;42.20;;;;;;5064814;28;41233;-59
2022/01/17 03:09:42;;;;;;;3.15;1.50;;;20.50;42.10;;;;;;5067617;28;20083;-59
2022/01/17 03:12:09;;;;;;;6.60;1.70;;;20.50;42.10;;;;;;5068027;28;20037;-59
2022/01/17 03:14:34;;;;;;;5.32;1.67;;;20.50;42.00;;;;;;5067094;28;20083;-59
2022/01/17 03:17:00;;;;;;;3.60;1.55;;;20.50;42.00;;;;;;5068340;28;20440;-59
2022/01/17 03:19:25;;;;;;;4.70;1.52;;;20.50;42.00;;;;;;5061626;28;20041;-58
2022/01/17 03:21:51;;;;;;;4.15;1.33;;;20.50;42.00;;;;;;5061576;28;43539;-59
2022/01/17 03:24:17;;;;;;;4.75;1.30;;;20.50;42.00;;;;;;5068575;28;20048;-59
2022/01/17 03:26:42;;;;;;;3.40;1.30;;;20.50;41.90;;;;;;5068557;28;20032;-60
2022/01/17 03:29:08;;;;;;;4.50;1.65;;;20.50;41.90;;;;;;5069368;28;20059;-59
2022/01/17 03:31:34;;;;;;;2.95;1.10;;;20.40;41.80;;;;;;5066059;28;20194;-61
2022/01/17 03:33:59;;;;;;;4.13;1.27;;;20.40;41.80;;;;;;5066151;28;20544;-59
2022/01/17 03:36:25;;;;;;;2.53;1.13;;;20.40;41.80;;;;;;5066893;28;40650;-59
2022/01/17 03:38:51;;;;;;;2.78;1.23;;;20.40;41.70;;;;;;5066054;28;20133;-59
2022/01/17 03:41:17;;;;;;;3.67;1.38;;;20.40;41.70;;;;;;5069276;28;20036;-59
2022/01/17 03:43:42;;;;;;;2.65;1.15;;;20.40;41.70;;;;;;5065943;28;20032;-59
2022/01/17 03:46:08;;;;;;;3.85;1.63;;;20.40;41.80;;;;;;5067697;28;20094;-59
2022/01/17 03:48:34;;;;;;;4.38;1.63;;;20.40;41.80;;;;;;5065826;28;39097;-59
2022/01/17 03:51:01;;;;;;;4.22;1.50;;;20.40;41.70;;;;;;5069805;28;20499;-59
2022/01/17 03:53:28;;;;;;;3.80;1.52;;;20.40;41.70;;;;;;5068635;28;20040;-59
2022/01/17 03:55:54;;;;;;;5.22;1.20;;;20.40;41.60;;;;;;5070047;28;20040;-59
2022/01/17 03:58:26;;;;;;;4.50;1.40;;;20.40;42.30;;;;;;5066545;28;20407;-58
2022/01/17 04:00:54;;;;;;;3.92;1.40;;;20.40;41.50;;;;;;5066243;28;20057;-59
2022/01/17 04:03:21;;;;;;;2.33;1.25;;;20.30;41.50;;;;;;5068252;28;38658;-59
2022/01/17 04:05:46;;;;;;;4.10;1.40;;;20.30;41.50;;;;;;5067666;28;20618;-59
2022/01/17 04:08:12;;;;;;;2.22;1.05;;;20.30;41.40;;;;;;5074089;28;20056;-59
2022/01/17 04:10:38;;;;;;;3.42;1.27;;;20.30;41.50;;;;;;5070344;28;20064;-59
2022/01/17 04:13:04;;;;;;;4.18;1.45;;;20.30;41.40;;;;;;5075632;28;20348;-60
2022/01/17 04:15:35;;;;;;;3.47;1.25;;;20.30;41.40;;;;;;5071564;28;20098;-59
2022/01/17 04:18:02;;;;;;;;;;;20.30;41.40;;;;;;5070920;28;40893;-59
2022/01/17 04:20:29;;;;;;;3.15;1.17;;;20.30;41.30;;;;;;5070898;28;19924;-59
2022/01/17 04:23:01;;;;;;;4.25;1.23;;;20.20;41.50;;;;;;5073358;28;20041;-59
2022/01/17 04:25:30;;;;;;;3.00;1.23;;;20.20;41.50;;;;;;5068672;28;20056;-59
2022/01/17 04:27:57;;;;;;;4.28;1.48;;;20.20;41.40;;;;;;5071302;28;20036;-59
2022/01/17 04:30:23;;;;;;;4.50;1.42;;;20.20;41.40;;;;;;5067642;28;28814;-59
2022/01/17 04:32:49;;;;;;;5.05;1.73;;;20.20;41.30;;;;;;5068822;28;20047;-59
2022/01/17 04:35:20;;;;;;;4.72;1.20;;;20.20;41.30;;;;;;5070678;28;20551;-59
2022/01/17 04:37:47;;;;;;;3.13;1.10;;;20.20;41.30;;;;;;5071502;28;20040;-59
2022/01/17 04:40:13;;;;;;;5.05;1.10;;;20.20;41.30;;;;;;5072166;28;20024;-60
2022/01/17 04:42:44;;;;;;;4.00;1.30;;;20.20;41.30;;;;;;5071287;28;20058;-59
2022/01/17 04:45:13;;;;;;;4.30;1.20;;;20.20;41.30;;;;;;5070391;28;41075;-59
2022/01/17 04:47:41;;;;;;;3.40;1.10;;;20.20;41.30;;;;;;5066222;28;20047;-59
2022/01/17 04:50:10;;;;;;;3.80;1.17;;;20.20;41.30;;;;;;5070545;28;20545;-59
2022/01/17 04:52:36;;;;;;;2.97;1.00;;;20.20;41.20;;;;;;5068699;28;20076;-59
2022/01/17 04:55:04;;;;;;;3.30;1.30;;;20.20;41.20;;;;;;5052781;28;20037;-59
2022/01/17 04:57:29;;;;;;;3.22;1.23;;;20.20;41.20;;;;;;5068165;28;20032;-59
2022/01/17 04:59:55;;;;;;;2.83;1.08;;;20.20;42.00;;;;;;5069539;28;41167;-59
2022/01/17 05:02:20;;;;;;;2.90;0.80;;;20.20;41.20;;;;;;5060257;28;20399;-59
2022/01/17 05:04:46;;;;;;;2.85;1.15;;;20.10;41.20;;;;;;5070087;28;20056;-59
2022/01/17 05:07:12;;;;;;;4.35;1.15;;;20.10;41.20;;;;;;5066930;28;20098;-59
2022/01/17 05:09:40;;;;;;;3.58;1.52;;;20.10;41.20;;;;;;5071616;28;20036;-59
2022/01/17 05:12:06;;;;;;;2.70;1.30;;;20.10;41.20;;;;;;5068845;28;20349;-58
2022/01/17 05:14:32;;;;;;;5.72;1.20;;;20.10;41.20;;;;;;5071054;28;46008;-57
2022/01/17 05:17:05;;;;;;;3.97;1.55;;;20.10;41.30;;;;;;5068040;28;20043;-59
2022/01/17 05:19:49;;;;;;;4.13;1.10;;;20.10;41.20;;;;;;5066632;28;20047;-59
2022/01/17 05:22:21;;;;;;;2.65;1.10;;;20.10;41.30;;;;;;5065589;28;20094;-59
2022/01/17 05:24:47;;;;;;;2.88;1.23;;;20.10;41.30;;;;;;5072397;28;20119;-59
2022/01/17 05:27:13;;;;;;;3.35;1.50;;;20.00;41.20;;;;;;5071275;28;36077;-59
2022/01/17 05:29:39;;;;;;;5.65;1.85;;;20.00;41.30;;;;;;5072215;28;20052;-59
2022/01/17 05:32:05;;;;;;;4.13;1.40;;;20.00;41.30;;;;;;5064464;28;20043;-59
2022/01/17 05:34:34;;;;;;;5.68;1.20;;;20.00;41.40;;;;;;5071754;28;21657;-59
2022/01/17 05:37:01;;;;;;;5.60;1.30;;;20.00;41.40;;;;;;5065809;28;20048;-59
2022/01/17 05:39:26;;;;;;;10.38;1.60;;;20.00;41.40;;;;;;5071157;28;20094;-58
2022/01/17 05:41:52;;;;;;;7.43;1.98;;;20.00;41.40;;;;;;5066260;28;40642;-59
2022/01/17 05:44:17;;;;;;;4.10;1.35;;;20.00;41.50;;;;;;5068171;28;20123;-58
2022/01/17 05:46:43;;;;;;;3.90;1.23;;;20.00;41.40;;;;;;5067976;28;20052;-60
2022/01/17 05:49:09;;;;;;;9.27;2.20;;;20.00;41.50;;;;;;5067147;28;20044;-59
2022/01/17 05:51:34;;;;;;;6.60;1.13;;;20.00;41.50;;;;;;5068899;28;20479;-59
2022/01/17 05:54:00;;;;;;;3.75;1.20;;;20.00;41.50;;;;;;5067115;28;20121;-60
2022/01/17 05:56:25;;;;;;;4.72;1.30;;;20.00;41.50;;;;;;5066351;28;41480;-59
2022/01/17 05:58:51;;;;;;;4.32;1.55;;;20.00;41.70;;;;;;5068498;28;20039;-60
2022/01/17 06:01:16;;;;;;;5.93;1.50;;;20.00;41.70;;;;;;5067801;28;20740;-59
2022/01/17 06:03:42;;;;;;;6.05;1.48;;;20.00;41.80;;;;;;5062765;28;20086;-59
2022/01/17 06:06:08;;;;;;;4.82;1.80;;;20.00;41.80;;;;;;5066766;28;20099;-59
2022/01/17 06:08:34;;;;;;;5.65;1.48;;;20.00;41.80;;;;;;5069445;28;20040;-59
2022/01/17 06:10:59;;;;;;;4.30;1.33;;;20.00;41.90;;;;;;5065107;28;38335;-59
2022/01/17 06:13:25;;;;;;;6.18;1.70;;;20.00;42.00;;;;;;5069168;28;20521;-59
2022/01/17 06:15:51;;;;;;;3.75;1.33;;;20.00;42.20;;;;;;5066454;28;20052;-59
2022/01/17 06:18:16;;;;;;;3.65;1.23;;;20.00;42.20;;;;;;5068337;28;20415;-59
2022/01/17 06:20:42;;;;;;;4.22;1.30;;;20.00;42.10;;;;;;5067169;28;20040;-58
2022/01/17 06:23:08;;;;;;;3.60;1.35;;;20.00;42.20;;;;;;5067694;28;38269;-58
2022/01/17 06:25:33;;;;;;;4.07;1.23;;;20.00;42.20;;;;;;5070043;28;20225;-59
2022/01/17 06:27:59;;;;;;;6.53;1.90;;;20.10;42.30;;;;;;5069808;28;20046;-59
2022/01/17 06:30:26;;;;;;;3.50;1.30;;;20.10;42.30;;;;;;5065280;28;20036;-59
2022/01/17 06:32:51;;;;;;;3.88;1.25;;;20.10;42.30;;;;;;5065266;28;20841;-58
2022/01/17 06:35:17;;;;;;;5.55;1.60;;;20.10;42.40;;;;;;5067697;28;20097;-58
2022/01/17 06:37:44;;;;;;;4.03;1.48;;;20.10;42.40;;;;;;5063546;28;38768;-59
2022/01/17 06:40:11;;;;;;;4.70;1.40;;;20.10;42.60;;;;;;5055054;28;20055;-58
2022/01/17 06:42:36;;;;;;;3.45;1.20;;;20.10;42.70;;;;;;5069063;28;20136;-60
2022/01/17 06:45:04;;;;;;;3.63;1.20;;;20.10;42.80;;;;;;5063757;28;20067;-59
2022/01/17 06:47:34;;;;;;;5.07;1.40;;;20.10;43.20;;;;;;5066335;28;20439;-60
2022/01/17 06:50:00;;;;;;;6.40;1.75;;;20.20;43.60;;;;;;5068510;28;20048;-59
2022/01/17 06:52:26;;;;;;;2.95;1.20;;;20.20;43.90;;;;;;5063946;28;43393;-60
2022/01/17 06:54:53;;;;;;;5.05;1.70;;;20.20;44.40;;;;;;5068053;28;20048;-59
2022/01/17 06:57:19;;;;;;;5.78;1.33;;;20.20;44.60;;;;;;5067837;28;20044;-60
2022/01/17 06:59:45;;;;;;;4.22;2.03;;;20.20;44.70;;;;;;5065781;28;20045;-59
2022/01/17 07:02:11;;;;;;;4.40;1.80;;;20.20;44.80;;;;;;5068178;28;20111;-59
2022/01/17 07:04:37;;;;;;;5.70;1.63;;;20.30;45.00;;;;;;5065336;28;20057;-58
2022/01/17 07:07:03;;;;;;;4.97;1.60;;;20.30;45.00;;;;;;5068233;28;35661;-60
2022/01/17 07:09:29;;;;;;;6.40;2.42;;;20.30;45.00;;;;;;5068670;28;20036;-59
2022/01/17 07:11:58;;;;;;;5.85;1.83;;;20.30;45.00;;;;;;5068762;28;20364;-59
2022/01/17 07:14:28;;;;;;;6.13;1.67;;;20.30;44.90;;;;;;5066582;28;20090;-60
2022/01/17 07:16:53;;;;;;;6.15;2.15;;;20.30;44.90;;;;;;5066594;28;20046;-59
2022/01/17 07:19:19;;;;;;;10.15;2.28;;;20.30;44.90;;;;;;5066490;28;39472;-59
2022/01/17 07:21:45;;;;;;;5.30;2.28;;;20.30;44.90;;;;;;5059389;28;20068;-59
2022/01/17 07:24:10;;;;;;;6.30;1.88;;;20.30;45.00;;;;;;5065178;28;20051;-59
2022/01/17 07:26:36;;;;;;;5.70;2.17;;;20.30;45.00;;;;;;5065599;28;20802;-59
2022/01/17 07:29:05;;;;;;;4.13;2.00;;;20.30;45.20;;;;;;5064650;28;20617;-60
2022/01/17 07:31:32;;;;;;;5.20;1.75;;;20.30;45.20;;;;;;5065966;28;20040;-60
2022/01/17 07:33:58;;;;;;;4.90;2.30;;;20.30;45.30;;;;;;5063150;28;43320;-59
2022/01/17 07:36:24;;;;;;;6.88;2.08;;;20.30;45.30;;;;;;5064086;28;20416;-60
2022/01/17 07:38:49;;;;;;;5.15;2.47;;;20.30;45.40;;;;;;5064061;28;20050;-60
2022/01/17 07:41:16;;;;;;;4.78;2.20;;;20.30;45.30;;;;;;5068394;28;20368;-57
2022/01/17 07:43:42;;;;;;;7.65;2.70;;;20.30;45.30;;;;;;5066868;28;20114;-60
2022/01/17 07:46:18;;;;;;;3.25;2.10;;;20.30;45.30;;;;;;5067100;28;20042;-58
2022/01/17 07:51:29;;;;;;;7.07;2.25;;;20.40;45.40;;;;;;5065609;28;20084;-60
2022/01/17 07:53:56;;;;;;;7.75;2.40;;;20.40;45.30;;;;;;5068377;28;20087;-60
2022/01/17 07:56:23;;;;;;;6.20;2.30;;;20.40;45.40;;;;;;5065956;28;20050;-60
2022/01/17 07:58:48;;;;;;;6.38;2.42;;;20.40;45.30;;;;;;5069662;28;20044;-59
2022/01/17 08:01:14;;;;;;;4.78;1.88;;;20.40;45.30;;;;;;5064895;28;20043;-58
2022/01/17 08:03:40;;;;;;;7.57;2.47;;;20.40;45.20;;;;;;5064802;28;46361;-60
2022/01/17 08:06:06;;;;;;;4.97;2.30;;;20.40;45.20;;;;;;5068066;28;20057;-60
2022/01/17 08:08:32;;;;;;;7.43;2.30;;;20.40;45.20;;;;;;5065154;28;20178;-59
2022/01/17 08:10:57;;;;;;;5.35;2.50;;;20.40;45.20;;;;;;5068530;28;20131;-58
2022/01/17 08:13:23;;;;;;;5.30;2.13;;;20.40;45.20;;;;;;5064611;28;20133;-59
2022/01/17 08:15:49;;;;;;;4.72;1.92;;;20.40;45.20;;;;;;5064860;28;43502;-59
2022/01/17 08:18:15;;;;;;;4.78;2.38;;;20.40;45.20;;;;;;5064990;28;20505;-60
2022/01/17 08:20:42;;;;;;;4.35;2.17;;;20.40;45.30;;;;;;5066478;28;20036;-59
2022/01/17 08:23:09;;;;;;;6.38;2.20;;;20.40;45.40;;;;;;5067455;28;20192;-58
2022/01/17 08:25:38;;;;;;;7.18;2.33;;;20.40;45.50;;;;;;5058188;28;20045;-58
2022/01/17 08:28:04;;;;;;;7.10;2.88;;;20.40;45.60;;;;;;5062557;28;20110;-59
2022/01/17 08:30:32;;;;;;;12.82;3.72;;;20.40;45.70;;;;;;5059838;28;41457;-60
2022/01/17 08:33:01;;;;;;;8.55;3.17;;;20.50;45.90;;;;;;5067520;28;20048;-60
2022/01/17 08:35:26;;;;;;;10.00;3.45;;;20.50;46.00;;;;;;5066889;28;20036;-60
2022/01/17 08:37:52;;;;;;;9.95;3.53;;;20.50;46.00;;;;;;5065825;28;20042;-59
2022/01/17 08:40:19;;;;;;;11.13;4.68;;;20.50;46.10;;;;;;5066700;28;20094;-59
2022/01/17 08:42:49;;;;;;;22.92;8.57;;;20.50;47.10;;;;;;5067864;28;20060;-59
2022/01/17 08:45:16;;;;;;;18.00;6.68;;;20.50;46.70;;;;;;5059601;28;31445;-58
2022/01/17 08:47:49;;;;;;;19.90;7.13;;;20.50;46.80;;;;;;5064229;28;20063;-59
2022/01/17 08:50:16;;;;;;;26.88;8.98;;;20.50;47.00;;;;;;5064670;28;20040;-59
2022/01/17 08:52:44;;;;;;;28.33;9.40;;;20.50;47.40;;;;;;5068211;28;20094;-60
2022/01/17 08:55:10;;;;;;;26.35;9.40;;;20.60;47.70;;;;;;5071119;28;20036;-60
2022/01/17 08:57:35;;;;;;;27.83;9.10;;;20.50;47.80;;;;;;5065510;28;38652;-59
2022/01/17 09:00:04;;;;;;;30.17;11.00;;;20.60;48.40;;;;;;5071927;28;20139;-59
2022/01/17 09:02:29;;;;;;;33.60;10.00;;;20.60;48.60;;;;;;5069763;28;20059;-59
2022/01/17 09:04:55;;;;;;;30.17;9.50;;;20.60;48.60;;;;;;5068786;28;20036;-58
2022/01/17 09:07:20;;;;;;;24.40;7.85;;;20.60;48.60;;;;;;5068337;28;20044;-59
2022/01/17 09:09:46;;;;;;;21.40;7.68;;;20.60;48.50;;;;;;5051835;28;20051;-59
2022/01/17 09:12:13;;;;;;;30.95;8.07;;;20.60;48.40;;;;;;5065997;28;41090;-59
2022/01/17 09:14:39;;;;;;;23.35;6.88;;;20.60;48.50;;;;;;5067290;28;20164;-59
2022/01/17 09:17:07;;;;;;;23.23;6.85;;;20.70;48.70;;;;;;5073757;28;20064;-59
2022/01/17 09:19:34;;;;;;;25.67;6.55;;;20.70;48.70;;;;;;5068657;28;20044;-59
2022/01/17 09:22:01;;;;;;;18.92;5.57;;;20.70;48.70;;;;;;5070334;28;20326;-59
2022/01/17 09:24:26;;;;;;;18.42;6.82;;;20.70;48.80;;;;;;5069768;28;20509;-59
2022/01/17 09:26:52;;;;;;;20.42;5.88;;;20.70;48.80;;;;;;5066971;28;41098;-60
2022/01/17 09:29:18;;;;;;;20.55;5.80;;;20.80;48.90;;;;;;5071250;28;20183;-59
2022/01/17 09:31:43;;;;;;;18.00;6.63;;;20.80;48.80;;;;;;5071520;28;20040;-59
2022/01/17 09:34:09;;;;;;;18.80;5.97;;;20.80;48.60;;;;;;5071805;28;20388;-59
2022/01/17 09:36:35;;;;;;;19.98;5.78;;;20.80;48.40;;;;;;5065595;28;20049;-59
2022/01/17 09:39:02;;;;;;;15.10;5.70;;;20.80;48.40;;;;;;5071899;28;20036;-58
2022/01/17 09:41:28;;;;;;;15.57;5.60;;;20.80;48.40;;;;;;5062072;28;26855;-58
2022/01/17 09:43:53;;;;;;;15.80;5.68;;;20.90;48.30;;;;;;5065258;28;20048;-59
2022/01/17 09:46:23;;;;;;;14.60;5.43;;;20.90;48.20;;;;;;5068815;28;20432;-58
2022/01/17 09:48:50;;;;;;;14.32;5.20;;;20.80;48.10;;;;;;5070410;28;20415;-59
2022/01/17 09:54:05;;;;;;;18.98;5.07;;;20.80;47.90;;;;;;5059563;28;40943;-59
2022/01/17 09:56:31;;;;;;;15.45;5.35;;;20.80;47.90;;;;;;5072048;28;20102;-58
2022/01/17 09:58:58;;;;;;;13.70;4.55;;;20.90;47.80;;;;;;5068583;28;20121;-59
2022/01/17 10:01:25;;;;;;;12.75;5.35;;;20.90;47.80;;;;;;5069003;28;20101;-58
2022/01/17 10:03:56;;;;;;;12.52;4.72;;;20.90;47.80;;;;;;5068188;28;20564;-58
2022/01/17 10:06:23;;;;;;;12.32;4.80;;;20.90;47.80;;;;;;5068741;28;20072;-60
2022/01/17 10:09:07;;;;;;;15.25;5.10;;;20.90;47.70;;;;;;5064831;28;36384;-60
2022/01/17 10:11:33;;;;;;;14.18;4.22;;;20.80;47.50;;;;;;5068154;28;20040;-60
2022/01/17 10:13:58;;;;;;;15.52;4.25;;;20.90;47.50;;;;;;5072181;28;20041;-59
2022/01/17 10:16:25;;;;;;;16.33;5.13;;;20.80;47.40;;;;;;5064494;28;20109;-58
2022/01/17 10:19:02;;;;;;;14.90;4.80;;;20.90;47.50;;;;;;5062030;28;20040;-58
2022/01/17 10:21:28;;;;;;;13.73;4.40;;;20.80;47.60;;;;;;5063223;28;20340;-59
2022/01/17 10:37:20;;;;;;;17.23;5.57;;;20.90;47.70;;;;;;5062880;28;40673;-60
2022/01/17 10:39:54;;;;;;;20.65;6.18;;;20.90;47.80;;;;;;5066316;28;20083;-59
2022/01/17 10:42:43;;;;;;;17.50;6.20;;;20.90;47.40;;;;;;5066840;28;20043;-60
2022/01/17 10:45:14;;;;;;;20.30;6.15;;;20.90;47.20;;;;;;5069398;28;20087;-60
2022/01/17 10:47:43;;;;;;;19.55;5.45;;;20.90;47.30;;;;;;5066357;28;20063;-60
2022/01/17 10:50:37;;;;;;;15.10;5.25;;;20.90;47.40;;;;;;5063053;28;38901;-60
2022/01/17 10:53:05;;;;;;;17.55;5.28;;;20.90;47.50;;;;;;5068103;28;20836;-60
2022/01/17 10:55:39;;;;;;;18.73;5.60;;;21.00;47.70;;;;;;5066795;28;20048;-58
2022/01/17 10:58:08;;;;;;;19.80;5.75;;;20.90;47.80;;;;;;5067418;28;20036;-60
2022/01/17 11:00:40;;;;;;;19.75;5.60;;;21.00;47.90;;;;;;5065224;28;20036;-60
2022/01/17 11:03:14;;;;;;;18.05;5.47;;;21.00;47.90;;;;;;5069377;28;20495;-60
2022/01/17 11:05:43;;;;;;;17.63;5.10;;;21.00;47.80;;;;;;5051105;28;33681;-59
2022/01/17 11:08:09;;;;;;;18.67;5.68;;;21.00;47.70;;;;;;5067750;28;20227;-60
2022/01/17 11:10:39;;;;;;;16.08;5.00;;;21.00;47.70;;;;;;5067467;28;20039;-60
2022/01/17 11:13:08;;;;;;;14.40;4.68;;;21.00;47.60;;;;;;5070581;28;20044;-60
2022/01/17 11:15:35;;;;;;;12.85;4.80;;;21.00;47.50;;;;;;5068507;28;20344;-59
2022/01/17 11:18:08;;;;;;;15.80;5.38;;;21.00;47.50;;;;;;5062911;28;20044;-59
2022/01/17 11:20:34;;;;;;;12.02;4.55;;;20.90;47.40;;;;;;5062215;28;39108;-59
2022/01/17 11:23:01;;;;;;;15.98;5.03;;;21.00;47.30;;;;;;5062320;28;20032;-60
2022/01/17 11:25:30;;;;;;;11.13;4.70;;;21.00;47.30;;;;;;5067297;28;20116;-59
2022/01/17 11:27:57;;;;;;;15.30;4.55;;;21.00;47.30;;;;;;5061689;28;20044;-60
2022/01/17 11:30:23;;;;;;;15.32;4.45;;;21.00;47.30;;;;;;5067650;28;20048;-59
2022/01/17 11:32:51;;;;;;;10.45;4.05;;;20.90;47.20;;;;;;5062117;28;40817;-60
2022/01/17 11:35:19;;;;;;;13.95;4.00;;;21.00;47.20;;;;;;5066356;28;20036;-59
2022/01/17 11:37:53;;;;;;;13.68;5.18;;;21.00;47.40;;;;;;5064732;28;20725;-60
2022/01/17 11:40:27;;;;;;;15.82;5.43;;;20.90;47.30;;;;;;5064564;28;20044;-59
2022/01/17 11:42:55;;;;;;;16.75;5.15;;;21.00;47.50;;;;;;5070525;28;20085;-59
2022/01/17 11:45:23;;;;;;;16.48;4.95;;;21.00;47.60;;;;;;5066214;28;20059;-59
2022/01/17 11:47:56;;;;;;;15.82;4.40;;;21.00;47.90;;;;;;5065844;28;38687;-60
2022/01/17 11:50:32;;;;;;;17.15;4.88;;;21.00;47.90;;;;;;5066291;28;20048;-60
2022/01/17 11:53:11;;;;;;;15.00;5.15;;;21.00;48.00;;;;;;5066362;28;20418;-59
2022/01/17 11:55:40;;;;;;;17.10;5.13;;;21.00;48.10;;;;;;5061389;28;20050;-59
2022/01/17 11:58:27;;;;;;;15.82;5.00;;;21.00;48.20;;;;;;5067707;28;20037;-60
2022/01/17 12:00:59;;;;;;;14.88;4.47;;;21.00;48.20;;;;;;5065624;28;36166;-58
2022/01/17 12:03:29;;;;;;;13.05;4.60;;;21.00;48.10;;;;;;5062839;28;20048;-60
2022/01/17 12:06:03;;;;;;;15.07;4.88;;;21.00;48.10;;;;;;5066528;28;20412;-59
2022/01/17 12:08:29;;;;;;;15.38;5.07;;;21.00;48.20;;;;;;5066345;28;20048;-58
2022/01/17 12:11:03;;;;;;;13.90;4.90;;;21.00;48.10;;;;;;5068216;28;20142;-59
2022/01/17 12:13:42;;;;;;;15.75;5.13;;;21.00;48.20;;;;;;5065169;28;20076;-59
2022/01/17 12:16:15;;;;;;;17.13;5.63;;;21.00;48.30;;;;;;5061374;28;43681;-60
2022/01/17 12:18:47;;;;;;;18.58;6.03;;;21.00;48.30;;;;;;5065254;28;20128;-60
2022/01/17 12:21:53;;;;;;;17.90;5.78;;;21.00;48.40;;;;;;5063386;28;20140;-60
2022/01/17 12:24:40;;;;;;;17.67;6.00;;;21.00;48.40;;;;;;5064890;28;20044;-60
2022/01/17 12:27:12;;;;;;;20.40;6.07;;;20.90;48.40;;;;;;5068957;28;20636;-59
2022/01/17 12:29:52;;;;;;;16.48;5.80;;;21.00;48.40;;;;;;5069124;28;38729;-58
2022/01/17 12:32:45;;;;;;;16.50;6.10;;;21.00;48.30;;;;;;5066993;28;20036;-59
2022/01/17 12:35:13;;;;;;;15.20;5.55;;;20.90;48.20;;;;;;5069212;28;20044;-59
2022/01/17 12:37:44;;;;;;;19.00;6.07;;;20.90;48.10;;;;;;5067111;28;20418;-59
2022/01/17 12:40:09;;;;;;;;;;;20.90;48.00;;;;;;5071067;28;20039;-59
2022/01/17 12:42:58;;;;;;;15.68;5.35;;;20.90;47.90;;;;;;5066088;28;43626;-59
2022/01/17 12:45:36;;;;;;;17.02;5.45;;;20.90;47.90;;;;;;5068949;28;20028;-59
2022/01/17 12:48:11;;;;;;;14.75;5.30;;;20.80;47.80;;;;;;5069771;28;20326;-60
2022/01/17 12:50:39;;;;;;;13.43;4.68;;;20.90;48.60;;;;;;5066289;28;20075;-59
2022/01/17 12:53:07;;;;;;;13.55;4.90;;;20.80;47.70;;;;;;5066738;28;20087;-58
2022/01/17 12:55:43;;;;;;;13.32;4.95;;;20.80;47.60;;;;;;5069692;28;20539;-59
2022/01/17 12:58:24;;;;;;;14.00;5.07;;;20.90;47.70;;;;;;5068261;28;39037;-59
2022/01/17 13:00:52;;;;;;;12.43;4.93;;;20.90;47.70;;;;;;5067595;28;20043;-59
2022/01/17 13:03:19;;;;;;;16.50;5.13;;;20.90;47.70;;;;;;5071492;28;20036;-59
2022/01/17 13:05:45;;;;;;;16.45;5.85;;;20.80;47.60;;;;;;5067991;28;20052;-59
2022/01/17 13:08:12;;;;;;;12.55;5.03;;;20.90;47.60;;;;;;5066515;28;20184;-59
2022/01/17 13:10:38;;;;;;;14.23;4.93;;;20.80;47.50;;;;;;5068264;28;20043;-60
2022/01/17 13:13:04;;;;;;;14.13;5.20;;;20.80;47.60;;;;;;5065973;28;35989;-58
2022/01/17 13:15:30;;;;;;;18.85;6.13;;;20.80;47.60;;;;;;5069661;28;20083;-59
2022/01/17 13:17:56;;;;;;;15.75;4.93;;;20.90;47.60;;;;;;5063935;28;20100;-59